Time;durP1;ratioP1;P1;durP2;ratioP2;P2;SDS_P1;SDS_P2;PMS_P1;PMS_P2;Temp;Humidity;BMP_temperature;BMP_pressure;BME280_temperature;BME280_humidity;BME280_pressure;Samples;Min_cycle;Max_cycle;Signal;HPM_P1;HPM_P2
2021/06/05 00:01:59;;;;;;;;;;;;;;;16.49;70.17;100631.77;1620536;89;20153;-82
2021/06/05 00:04:24;;;;;;;;;;;;;;;16.47;70.52;100637.72;1620579;89;20173;-82
2021/06/05 00:06:51;;;;;;;;;;;;;;;16.44;70.62;100633.50;1620420;89;20148;-82
2021/06/05 00:09:18;;;;;;;;;;;;;;;16.42;70.88;100631.50;1620606;89;20987;-82
2021/06/05 00:11:44;;;;;;;;;;;;;;;16.40;71.04;100629.45;1620495;89;20142;-82
2021/06/05 00:14:12;;;;;;;;;;;;;;;16.36;71.20;100612.92;1620647;89;20170;-82
2021/06/05 00:16:41;;;;;;;;;;;;;;;16.31;71.34;100599.17;1620424;89;20174;-82
2021/06/05 00:19:09;;;;;;;;;;;;;;;16.28;71.14;100603.45;1620386;89;20435;-81
2021/06/05 00:21:35;;;;;;;;;;;;;;;16.24;71.11;100607.38;1620412;89;20113;-82
2021/06/05 00:24:01;;;;;;;;;;;;;;;16.22;71.45;100599.18;1620651;89;20145;-81
2021/06/05 00:26:27;;;;;;;;;;;;;;;16.18;71.47;100594.14;1620444;89;20110;-81
2021/06/05 00:28:53;;;;;;;;;;;;;;;16.15;71.46;100596.24;1620462;89;20181;-82
2021/06/05 00:31:19;;;;;;;;;;;;;;;16.12;71.59;100600.05;1620503;89;20141;-82
2021/06/05 00:33:45;;;;;;;;;;;;;;;16.11;71.65;100598.34;1620532;89;20430;-82
2021/06/05 00:36:12;;;;;;;;;;;;;;;16.09;71.66;100587.48;1620486;89;20126;-82
2021/06/05 00:38:39;;;;;;;;;;;;;;;16.07;71.97;100586.30;1620432;89;20181;-81
2021/06/05 00:41:06;;;;;;;;;;;;;;;16.06;71.65;100591.78;1620459;89;20114;-81
2021/06/05 00:43:39;;;;;;;;;;;;;;;16.06;71.70;100589.13;1620504;89;20110;-81
2021/06/05 00:46:04;;;;;;;;;;;;;;;16.06;71.66;100594.45;1620251;89;20169;-82
2021/06/05 00:48:30;;;;;;;;;;;;;;;16.06;71.69;100590.45;1620586;89;20129;-82
2021/06/05 00:50:57;;;;;;;;;;;;;;;16.06;71.48;100595.78;1620484;89;20137;-82
2021/06/05 00:53:26;;;;;;;;;;;;;;;16.05;71.55;100595.41;1595037;89;20129;-82
2021/06/05 00:55:54;;;;;;;;;;;;;;;16.04;71.66;100593.24;1620566;89;20114;-83
2021/06/05 00:58:20;;;;;;;;;;;;;;;16.05;71.80;100594.08;1620407;89;20280;-83
2021/06/05 01:00:49;;;;;;;;;;;;;;;16.05;71.87;100600.73;1620623;89;20166;-82
2021/06/05 01:03:16;;;;;;;;;;;;;;;16.06;71.80;100597.11;1620333;88;20110;-83
2021/06/05 01:05:44;;;;;;;;;;;;;;;16.05;71.75;100596.24;1620539;89;20137;-82
2021/06/05 01:08:31;;;;;;;;;;;;;;;16.05;71.81;100599.40;1620489;89;20129;-82
2021/06/05 01:11:01;;;;;;;;;;;;;;;16.04;71.86;100599.89;1620391;89;20121;-83
2021/06/05 01:13:33;;;;;;;;;;;;;;;16.05;71.81;100600.23;1620233;89;20110;-82
2021/06/05 01:16:01;;;;;;;;;;;;;;;16.06;72.00;100594.45;1619684;89;20444;-83
2021/06/05 01:18:33;;;;;;;;;;;;;;;16.05;71.82;100600.23;1595189;89;20454;-82
2021/06/05 01:21:18;;;;;;;;;;;;;;;16.06;71.79;100591.78;1620370;89;20431;-83
2021/06/05 01:24:05;;;;;;;;;;;;;;;16.04;71.70;100583.92;1620594;89;20122;-82
2021/06/05 01:26:37;;;;;;;;;;;;;;;16.04;71.79;100574.61;1620544;89;20109;-83
2021/06/05 01:29:10;;;;;;;;;;;;;;;16.05;71.69;100568.79;1619721;89;20165;-83
2021/06/05 01:31:39;;;;;;;;;;;;;;;16.05;71.46;100571.45;1620176;88;20125;-83
2021/06/05 01:34:05;;;;;;;;;;;;;;;16.06;71.54;100570.49;1619654;89;20403;-83
2021/06/05 01:36:34;;;;;;;;;;;;;;;16.06;71.46;100568.66;1620542;89;20116;-83
2021/06/05 01:39:06;;;;;;;;;;;;;;;16.07;71.31;100555.70;1595110;89;20463;-83
2021/06/05 01:41:33;;;;;;;;;;;;;;;16.08;71.58;100558.70;1620461;89;20161;-83
2021/06/05 01:44:00;;;;;;;;;;;;;;;16.07;71.72;100554.36;1620532;89;20292;-83
2021/06/05 01:46:31;;;;;;;;;;;;;;;16.07;71.39;100551.70;1620609;89;20106;-83
2021/06/05 01:48:57;;;;;;;;;;;;;;;16.01;71.53;100535.46;1620458;89;20143;-83
2021/06/05 01:51:24;;;;;;;;;;;;;;;16.10;71.34;100547.92;1620552;89;20118;-83
2021/06/05 01:53:55;;;;;;;;;;;;;;;16.10;71.25;100546.59;1620340;89;20110;-83
2021/06/05 01:56:30;;;;;;;;;;;;;;;16.10;71.49;100544.77;1620550;88;20131;-83
2021/06/05 01:58:57;;;;;;;;;;;;;;;16.12;71.45;100540.16;1620477;89;20121;-83
2021/06/05 02:01:23;;;;;;;;;;;;;;;16.13;71.39;100539.16;1620566;89;20118;-83
2021/06/05 02:03:50;;;;;;;;;;;;;;;16.13;71.38;100542.33;1620364;89;20139;-83
2021/06/05 02:06:17;;;;;;;;;;;;;;;16.12;71.49;100538.83;1620530;89;20109;-83
2021/06/05 02:08:43;;;;;;;;;;;;;;;16.12;71.80;100536.63;1620373;89;20117;-83
2021/06/05 02:11:12;;;;;;;;;;;;;;;16.12;71.81;100541.48;1620575;89;20455;-83
2021/06/05 02:13:40;;;;;;;;;;;;;;;16.11;71.80;100544.27;1620007;89;20139;-83
2021/06/05 02:16:10;;;;;;;;;;;;;;;16.09;71.75;100540.90;1619627;88;20158;-82
2021/06/05 02:18:36;;;;;;;;;;;;;;;16.08;71.99;100545.39;1619166;89;20412;-83
2021/06/05 02:21:08;;;;;;;;;;;;;;;16.06;72.34;100538.55;1620422;89;20114;-83
2021/06/05 02:23:44;;;;;;;;;;;;;;;16.04;72.45;100538.67;1620558;89;20118;-83
2021/06/05 02:26:10;;;;;;;;;;;;;;;16.04;72.52;100538.67;1620635;89;20134;-83
2021/06/05 02:28:38;;;;;;;;;;;;;;;16.03;72.71;100530.84;1594901;89;20110;-83
2021/06/05 02:31:06;;;;;;;;;;;;;;;16.01;72.76;100520.82;1620439;89;20122;-83
2021/06/05 02:33:34;;;;;;;;;;;;;;;15.99;72.71;100522.31;1620437;89;20118;-83
2021/06/05 02:36:02;;;;;;;;;;;;;;;15.97;72.65;100509.62;1620432;89;20118;-83
2021/06/05 02:38:30;;;;;;;;;;;;;;;15.95;72.86;100505.75;1620392;89;20142;-84
2021/06/05 02:40:56;;;;;;;;;;;;;;;15.93;72.92;100513.06;1620463;89;20114;-83
2021/06/05 02:43:25;;;;;;;;;;;;;;;15.91;73.00;100504.86;1620344;89;20162;-83
2021/06/05 02:46:03;;;;;;;;;;;;;;;15.90;72.95;100508.02;1595129;89;20420;-83
2021/06/05 02:48:44;;;;;;;;;;;;;;;15.89;73.08;100513.00;1620226;89;20436;-83
2021/06/05 02:51:11;;;;;;;;;;;;;;;15.87;72.85;100512.78;1619430;89;20122;-83
2021/06/05 02:53:37;;;;;;;;;;;;;;;15.85;72.83;100507.59;1620323;89;20118;-83
2021/06/05 02:56:03;;;;;;;;;;;;;;;15.84;73.25;100509.08;1620488;89;20141;-83
2021/06/05 02:58:29;;;;;;;;;;;;;;;15.82;73.28;100513.19;1620447;89;20439;-83
2021/06/05 03:00:54;;;;;;;;;;;;;;;15.80;73.12;100512.51;1620489;89;20122;-83
2021/06/05 03:03:22;;;;;;;;;;;;;;;15.78;73.31;100510.47;1620441;89;20138;-84
2021/06/05 03:05:48;;;;;;;;;;;;;;;15.78;73.28;100510.47;1620441;89;20408;-84
2021/06/05 03:08:17;;;;;;;;;;;;;;;15.77;73.60;100513.28;1620305;89;20114;-83
2021/06/05 03:10:43;;;;;;;;;;;;;;;15.75;73.56;100516.06;1619617;89;20141;-83
2021/06/05 03:13:10;;;;;;;;;;;;;;;15.74;73.70;100517.05;1620658;89;20197;-83
2021/06/05 03:15:36;;;;;;;;;;;;;;;15.74;73.82;100521.54;1620679;89;20169;-83
2021/06/05 03:18:03;;;;;;;;;;;;;;;15.73;74.09;100521.17;1620528;89;20125;-84
2021/06/05 03:20:35;;;;;;;;;;;;;;;15.73;73.92;100517.18;1620676;89;20452;-83
2021/06/05 03:23:02;;;;;;;;;;;;;;;15.73;74.16;100519.38;1620535;89;20158;-83
2021/06/05 03:25:28;;;;;;;;;;;;;;;15.73;74.22;100515.84;1620750;89;20145;-83
2021/06/05 03:27:53;;;;;;;;;;;;;;;15.73;74.27;100517.18;1620502;89;20114;-83
2021/06/05 03:30:21;;;;;;;;;;;;;;;15.73;74.28;100519.38;1620614;89;20153;-83
2021/06/05 03:32:46;;;;;;;;;;;;;;;15.73;74.29;100518.51;1620644;89;20113;-83
2021/06/05 03:35:13;;;;;;;;;;;;;;;15.73;74.16;100515.84;1620658;89;20183;-83
2021/06/05 03:37:39;;;;;;;;;;;;;;;15.72;74.32;100517.67;1620387;89;20133;-84
2021/06/05 03:40:11;;;;;;;;;;;;;;;15.71;74.34;100519.50;1620657;89;20130;-84
2021/06/05 03:42:36;;;;;;;;;;;;;;;15.72;74.30;100536.30;1620451;89;20407;-84
2021/06/05 03:45:04;;;;;;;;;;;;;;;15.71;74.29;100535.95;1620680;89;20165;-84
2021/06/05 03:47:30;;;;;;;;;;;;;;;15.71;74.38;100531.97;1620411;89;20110;-84
2021/06/05 03:49:56;;;;;;;;;;;;;;;15.70;74.11;100525.81;1620649;89;20113;-84
2021/06/05 03:52:25;;;;;;;;;;;;;;;15.70;74.30;100527.14;1620520;89;20428;-84
2021/06/05 03:54:52;;;;;;;;;;;;;;;15.70;74.31;100523.15;1620606;89;20157;-84
2021/06/05 03:57:19;;;;;;;;;;;;;;;15.70;74.36;100516.99;1620355;89;20391;-83
2021/06/05 03:59:44;;;;;;;;;;;;;;;15.69;74.31;100516.16;1620730;89;20146;-84
2021/06/05 04:02:10;;;;;;;;;;;;;;;15.69;74.55;100528.13;1620433;89;20102;-84
2021/06/05 04:04:36;;;;;;;;;;;;;;;15.70;74.74;100530.30;1620815;89;20388;-84
2021/06/05 04:07:03;;;;;;;;;;;;;;;15.70;74.78;100517.83;1620466;89;20114;-84
2021/06/05 04:09:29;;;;;;;;;;;;;;;15.75;74.75;100519.22;1620554;89;20129;-84
2021/06/05 04:11:54;;;;;;;;;;;;;;;15.78;74.79;100514.95;1620356;89;20153;-84
2021/06/05 04:14:20;;;;;;;;;;;;;;;15.81;75.06;100512.02;1620740;89;20440;-84
2021/06/05 04:16:46;;;;;;;;;;;;;;;15.84;75.21;100508.58;1620429;89;20563;-83
2021/06/05 04:19:12;;;;;;;;;;;;;;;15.87;75.07;100509.62;1620712;89;20121;-83
2021/06/05 04:21:38;;;;;;;;;;;;;;;15.89;75.15;100505.02;1620398;89;20153;-84
2021/06/05 04:24:05;;;;;;;;;;;;;;;15.93;75.00;100510.89;1620546;89;20420;-83
2021/06/05 04:26:31;;;;;;;;;;;;;;;15.96;74.99;100513.27;1620627;89;20141;-84
2021/06/05 04:28:57;;;;;;;;;;;;;;;16.00;75.09;100508.51;1620535;89;20114;-84
2021/06/05 04:31:23;;;;;;;;;;;;;;;16.05;75.04;100504.41;1620614;89;20157;-84
2021/06/05 04:33:48;;;;;;;;;;;;;;;16.09;75.09;100499.64;1620486;89;20137;-83
2021/06/05 04:36:16;;;;;;;;;;;;;;;16.11;75.32;100499.02;1620713;89;20466;-84
2021/06/05 04:38:43;;;;;;;;;;;;;;;16.15;75.20;100499.08;1620414;89;20157;-84
2021/06/05 04:41:11;;;;;;;;;;;;;;;16.17;75.36;100503.28;1620609;89;20137;-83
2021/06/05 04:43:38;;;;;;;;;;;;;;;16.21;75.48;100506.50;1620416;89;20142;-84
2021/06/05 04:46:04;;;;;;;;;;;;;;;16.22;75.22;100508.16;1620552;89;20145;-83
2021/06/05 04:48:31;;;;;;;;;;;;;;;16.24;75.24;100507.54;1620454;89;20451;-83
2021/06/05 04:50:56;;;;;;;;;;;;;;;16.26;75.29;100501.59;1620535;89;20137;-84
2021/06/05 04:53:26;;;;;;;;;;;;;;;16.28;75.25;100505.42;1620421;89;20185;-84
2021/06/05 04:55:51;;;;;;;;;;;;;;;16.29;75.46;100509.30;1619213;89;20452;-84
2021/06/05 04:58:17;;;;;;;;;;;;;;;16.31;75.35;100511.30;1620550;89;20129;-83
2021/06/05 05:00:46;;;;;;;;;;;;;;;16.34;75.43;100508.84;1620527;89;20110;-83
2021/06/05 05:03:14;;;;;;;;;;;;;;;16.35;75.67;100512.72;1620496;89;20142;-83
2021/06/05 05:05:41;;;;;;;;;;;;;;;16.37;75.77;100512.56;1620458;89;20114;-83
2021/06/05 05:08:08;;;;;;;;;;;;;;;16.40;75.76;100516.27;1620450;89;20134;-84
2021/06/05 05:10:37;;;;;;;;;;;;;;;16.41;75.85;100508.61;1620475;89;20118;-84
2021/06/05 05:13:04;;;;;;;;;;;;;;;16.43;75.78;100504.00;1620440;89;20141;-84
2021/06/05 05:15:30;;;;;;;;;;;;;;;16.44;75.54;100496.84;1620583;89;20170;-84
2021/06/05 05:17:56;;;;;;;;;;;;;;;16.46;75.62;100502.38;1620496;89;20122;-84
2021/06/05 05:20:28;;;;;;;;;;;;;;;16.48;75.76;100495.06;1620525;89;20150;-84
2021/06/05 05:22:53;;;;;;;;;;;;;;;16.49;75.79;100490.60;1620374;89;20163;-84
2021/06/05 05:25:20;;;;;;;;;;;;;;;16.51;76.01;100503.27;1620495;89;20185;-84
2021/06/05 05:27:46;;;;;;;;;;;;;;;16.53;76.03;100502.64;1620485;89;20118;-84
2021/06/05 05:30:15;;;;;;;;;;;;;;;16.56;76.11;100508.51;1620689;89;20443;-84
2021/06/05 05:32:41;;;;;;;;;;;;;;;16.59;76.16;100514.05;1619214;89;20469;-84
2021/06/05 05:35:08;;;;;;;;;;;;;;;16.62;76.31;100510.59;1620780;89;20161;-83
2021/06/05 05:37:34;;;;;;;;;;;;;;;16.65;76.31;100503.64;1620526;89;20142;-84
2021/06/05 05:40:00;;;;;;;;;;;;;;;16.70;76.36;100511.19;1620598;89;20147;-84
2021/06/05 05:42:25;;;;;;;;;;;;;;;16.76;76.43;100513.80;1620429;89;20500;-83
2021/06/05 05:44:51;;;;;;;;;;;;;;;16.80;76.09;100512.51;1620694;89;20141;-84
2021/06/05 05:47:17;;;;;;;;;;;;;;;16.87;76.21;100508.27;1620420;89;20113;-84
2021/06/05 05:49:43;;;;;;;;;;;;;;;16.93;76.21;100510.84;1620752;89;20424;-84
2021/06/05 05:52:08;;;;;;;;;;;;;;;16.99;76.09;100512.92;1620367;89;20252;-84
2021/06/05 05:54:34;;;;;;;;;;;;;;;17.05;76.18;100513.66;1620584;89;20107;-84
2021/06/05 05:57:00;;;;;;;;;;;;;;;17.12;76.44;100514.74;1620362;89;20148;-84
2021/06/05 05:59:25;;;;;;;;;;;;;;;17.19;75.63;100509.16;1620618;89;20102;-84
2021/06/05 06:01:51;;;;;;;;;;;;;;;17.24;75.61;100501.55;1620346;89;20138;-84
2021/06/05 06:04:17;;;;;;;;;;;;;;;17.31;75.64;100504.45;1620686;89;20175;-84
2021/06/05 06:06:42;;;;;;;;;;;;;;;17.40;75.46;100506.20;1620339;89;20153;-84
2021/06/05 06:09:08;;;;;;;;;;;;;;;17.47;75.53;100510.43;1620520;89;20137;-84
2021/06/05 06:11:34;;;;;;;;;;;;;;;17.53;74.98;100505.83;1620436;89;20141;-84
2021/06/05 06:14:00;;;;;;;;;;;;;;;17.58;74.85;100503.55;1620556;89;20400;-84
2021/06/05 06:16:26;;;;;;;;;;;;;;;17.63;75.09;100499.09;1620550;89;20138;-84
2021/06/05 06:18:53;;;;;;;;;;;;;;;17.70;75.07;100506.34;1620554;89;20130;-84
2021/06/05 06:21:21;;;;;;;;;;;;;;;17.79;74.85;100509.44;1620587;89;20412;-84
2021/06/05 06:23:48;;;;;;;;;;;;;;;17.86;75.22;100506.16;1620363;89;20134;-85
2021/06/05 06:26:23;;;;;;;;;;;;;;;17.95;74.66;100501.23;1620509;89;20138;-84
2021/06/05 06:28:49;;;;;;;;;;;;;;;18.01;74.86;100501.45;1619403;89;20150;-84
2021/06/05 06:31:17;;;;;;;;;;;;;;;18.09;74.65;100502.00;1620466;89;20149;-85
2021/06/05 06:33:43;;;;;;;;;;;;;;;18.16;74.52;100508.39;1620156;89;20141;-85
2021/06/05 06:36:10;;;;;;;;;;;;;;;18.23;74.29;100511.30;1620473;89;20126;-85
2021/06/05 06:38:42;;;;;;;;;;;;;;;18.28;73.69;100515.16;1620360;89;20157;-85
2021/06/05 06:41:11;;;;;;;;;;;;;;;18.36;73.92;100505.52;1620499;89;20137;-85
2021/06/05 06:43:37;;;;;;;;;;;;;;;18.44;73.93;100510.92;1619458;89;20396;-85
2021/06/05 06:46:06;;;;;;;;;;;;;;;18.51;73.64;100515.97;1620459;89;20137;-85
2021/06/05 06:48:33;;;;;;;;;;;;;;;18.57;73.65;100518.02;1620399;89;20172;-86
2021/06/05 06:50:59;;;;;;;;;;;;;;;18.65;73.44;100520.72;1620586;89;20164;-86
2021/06/05 06:53:25;;;;;;;;;;;;;;;18.67;73.06;100509.88;1620489;89;20133;-85
2021/06/05 06:55:51;;;;;;;;;;;;;;;18.73;73.17;100510.11;1620517;89;20477;-85
2021/06/05 06:58:17;;;;;;;;;;;;;;;18.80;72.63;100513.48;1620372;89;20431;-86
2021/06/05 07:00:46;;;;;;;;;;;;;;;18.83;72.77;100511.84;1620471;89;20137;-86
2021/06/05 07:03:12;;;;;;;;;;;;;;;18.89;72.63;100513.88;1620471;89;20106;-86
2021/06/05 07:05:38;;;;;;;;;;;;;;;18.97;73.58;100512.05;1620578;89;20141;-86
2021/06/05 07:08:10;;;;;;;;;;;;;;;19.05;72.65;100506.39;1620360;89;20114;-85
2021/06/05 07:10:37;;;;;;;;;;;;;;;19.12;73.39;100506.94;1613627;89;20428;-87
2021/06/05 07:13:03;;;;;;;;;;;;;;;19.20;73.25;100506.11;1620321;89;20114;-85
2021/06/05 07:15:29;;;;;;;;;;;;;;;19.25;72.90;100508.28;1620583;89;20126;-86
2021/06/05 07:17:54;;;;;;;;;;;;;;;19.34;72.25;100506.80;1620361;89;20104;-88
2021/06/05 07:20:20;;;;;;;;;;;;;;;19.39;72.17;100509.02;1620559;89;20094;-84
2021/06/05 07:22:46;;;;;;;;;;;;;;;19.45;71.99;100504.34;1620340;89;20114;-86
2021/06/05 07:25:12;;;;;;;;;;;;;;;19.52;72.18;100504.02;1620626;89;20145;-85
2021/06/05 07:27:38;;;;;;;;;;;;;;;19.59;71.99;100502.34;1620307;89;20147;-87
2021/06/05 07:30:05;;;;;;;;;;;;;;;19.66;71.65;100505.23;1620621;89;20427;-88
2021/06/05 07:32:31;;;;;;;;;;;;;;;19.69;71.79;100494.19;1620285;89;20412;-87
2021/06/05 07:34:57;;;;;;;;;;;;;;;19.74;71.56;100492.34;1620706;89;20102;-84
2021/06/05 07:37:23;;;;;;;;;;;;;;;19.83;71.80;100496.19;1620293;89;20146;-87
2021/06/05 07:39:49;;;;;;;;;;;;;;;19.92;70.71;100498.37;1620587;89;20388;-86
2021/06/05 07:42:15;;;;;;;;;;;;;;;19.98;70.99;100496.38;1620302;89;20142;-87
2021/06/05 07:44:40;;;;;;;;;;;;;;;20.05;70.95;100490.67;1620532;89;20142;-86
2021/06/05 07:47:06;;;;;;;;;;;;;;;20.08;69.75;100486.31;1620312;89;20139;-86
2021/06/05 07:49:35;;;;;;;;;;;;;;;20.09;69.56;100485.30;1620617;89;20129;-87
2021/06/05 07:52:03;;;;;;;;;;;;;;;20.10;69.54;100480.30;1620230;89;20170;-86
2021/06/05 07:54:29;;;;;;;;;;;;;;;20.15;69.63;100482.45;1620649;89;20435;-87
2021/06/05 07:56:55;;;;;;;;;;;;;;;20.20;69.50;100489.97;1620482;88;20145;-87
2021/06/05 07:59:24;;;;;;;;;;;;;;;20.25;69.42;100483.61;1620661;89;20170;-88
2021/06/05 08:01:51;;;;;;;;;;;;;;;20.30;68.79;100496.84;1620402;89;20141;-87
2021/06/05 08:04:17;;;;;;;;;;;;;;;20.37;68.98;100495.66;1620661;89;20114;-87
2021/06/05 08:06:44;;;;;;;;;;;;;;;20.46;69.07;100495.95;1620447;89;20380;-87
2021/06/05 08:09:10;;;;;;;;;;;;;;;20.56;68.52;100499.30;1620657;89;20122;-87
2021/06/05 08:11:36;;;;;;;;;;;;;;;20.64;68.87;100493.60;1620500;89;20141;-87
2021/06/05 08:14:02;;;;;;;;;;;;;;;20.74;68.20;100487.53;1620592;89;20447;-86
2021/06/05 08:16:28;;;;;;;;;;;;;;;20.83;68.51;100487.33;1620669;89;20113;-86
2021/06/05 08:18:54;;;;;;;;;;;;;;;20.96;68.38;100488.11;1620576;89;20134;-87
2021/06/05 08:21:20;;;;;;;;;;;;;;;21.07;67.23;100476.98;1620528;89;20463;-86
2021/06/05 08:23:47;;;;;;;;;;;;;;;21.16;67.12;100483.63;1620452;89;20118;-86
2021/06/05 08:26:17;;;;;;;;;;;;;;;21.28;66.87;100488.92;1620587;89;20578;-87
2021/06/05 08:28:43;;;;;;;;;;;;;;;21.39;66.98;100481.86;1620599;89;20106;-87
2021/06/05 08:31:11;;;;;;;;;;;;;;;21.50;66.59;100484.63;1620618;89;20126;-87
2021/06/05 08:33:37;;;;;;;;;;;;;;;21.63;66.50;100484.87;1595327;89;20133;-87
2021/06/05 08:36:04;;;;;;;;;;;;;;;21.68;65.53;100481.63;1620642;89;20137;-87
2021/06/05 08:38:31;;;;;;;;;;;;;;;21.71;65.58;100474.05;1620537;89;20134;-88
2021/06/05 08:41:03;;;;;;;;;;;;;;;21.79;66.15;100478.54;1620511;89;20113;-86
2021/06/05 08:43:41;;;;;;;;;;;;;;;21.87;66.05;100481.66;1620484;89;20134;-87
2021/06/05 08:46:10;;;;;;;;;;;;;;;21.97;65.48;100475.00;1620544;89;20110;-86
2021/06/05 08:48:36;;;;;;;;;;;;;;;22.02;65.44;100466.41;1620581;89;20142;-88
2021/06/05 08:51:41;;;;;;;;;;;;;;;22.08;64.95;100468.38;1620661;89;20466;-86
2021/06/05 08:54:37;;;;;;;;;;;;;;;22.14;65.42;100468.13;1620603;89;20133;-87
2021/06/05 08:57:07;;;;;;;;;;;;;;;22.28;66.13;100469.19;1620409;89;20149;-87
2021/06/05 08:59:33;;;;;;;;;;;;;;;22.40;65.42;100463.69;1619796;89;20110;-86
2021/06/05 09:01:59;;;;;;;;;;;;;;;22.46;65.06;100459.75;1620335;89;20141;-87
2021/06/05 09:04:26;;;;;;;;;;;;;;;22.55;65.91;100454.30;1620691;89;20110;-87
2021/06/05 09:06:58;;;;;;;;;;;;;;;22.62;64.56;100451.17;1620474;89;20466;-85
2021/06/05 09:09:32;;;;;;;;;;;;;;;22.70;65.29;100461.82;1620676;89;20110;-86
2021/06/05 09:11:59;;;;;;;;;;;;;;;22.79;65.10;100449.11;1620368;89;20133;-87
2021/06/05 09:14:24;;;;;;;;;;;;;;;22.83;64.52;100445.84;1620562;89;20138;-85
2021/06/05 09:16:51;;;;;;;;;;;;;;;22.91;64.63;100448.96;1620452;89;20170;-85
2021/06/05 09:19:26;;;;;;;;;;;;;;;22.90;64.73;100445.44;1620621;89;20110;-84
2021/06/05 09:21:59;;;;;;;;;;;;;;;22.97;64.44;100445.55;1620320;89;20141;-84
2021/06/05 09:24:29;;;;;;;;;;;;;;;23.06;63.51;100438.17;1619286;89;20220;-85
2021/06/05 09:27:11;;;;;;;;;;;;;;;23.17;63.48;100433.66;1619868;89;20153;-86
2021/06/05 09:30:00;;;;;;;;;;;;;;;23.30;64.47;100445.91;1620665;89;20416;-86
2021/06/05 09:32:35;;;;;;;;;;;;;;;23.49;63.42;100444.94;1589783;89;20145;-84
2021/06/05 09:35:12;;;;;;;;;;;;;;;23.67;61.93;100437.23;1620574;89;20121;-84
2021/06/05 09:37:47;;;;;;;;;;;;;;;23.79;62.59;100441.59;1619986;89;20455;-86
2021/06/05 09:40:23;;;;;;;;;;;;;;;23.93;61.08;100442.56;1619044;89;20135;-84
2021/06/05 09:43:11;;;;;;;;;;;;;;;24.04;60.46;100442.01;1620672;89;20141;-84
2021/06/05 09:45:40;;;;;;;;;;;;;;;24.06;60.13;100438.61;1618920;89;20169;-86
2021/06/05 09:48:28;;;;;;;;;;;;;;;24.06;58.21;100433.23;1619457;89;20400;-86
2021/06/05 09:50:56;;;;;;;;;;;;;;;24.10;58.82;100438.02;1620484;89;20415;-86
2021/06/05 09:53:31;;;;;;;;;;;;;;;24.25;60.17;100437.91;1620473;88;20110;-85
2021/06/05 09:56:00;;;;;;;;;;;;;;;24.40;59.06;100441.83;1620572;89;20141;-86
2021/06/05 09:58:39;;;;;;;;;;;;;;;24.50;57.84;100446.37;1620359;89;20400;-86
2021/06/05 10:01:24;;;;;;;;;;;;;;;24.62;59.12;100439.91;1620555;89;20146;-86
2021/06/05 10:03:54;;;;;;;;;;;;;;;24.75;57.76;100438.61;1620495;89;20145;-86
2021/06/05 10:06:23;;;;;;;;;;;;;;;24.87;57.32;100444.24;1620588;89;20184;-85
2021/06/05 10:08:49;;;;;;;;;;;;;;;24.99;56.48;100443.16;1615659;89;20425;-85
2021/06/05 10:11:27;;;;;;;;;;;;;;;25.08;56.49;100441.12;1620684;89;20097;-86
2021/06/05 10:13:57;;;;;;;;;;;;;;;25.18;56.34;100439.72;1620334;89;20110;-86
2021/06/05 10:16:23;;;;;;;;;;;;;;;25.27;55.57;100441.69;1620158;89;20416;-85
2021/06/05 10:18:59;;;;;;;;;;;;;;;25.33;54.40;100434.64;1620388;89;20172;-85
2021/06/05 10:21:40;;;;;;;;;;;;;;;25.38;54.30;100434.88;1620494;89;20113;-86
2021/06/05 10:24:18;;;;;;;;;;;;;;;25.42;55.01;100429.36;1617584;89;20142;-85
2021/06/05 10:26:45;;;;;;;;;;;;;;;25.53;53.38;100437.37;1620453;89;20428;-84
2021/06/05 10:29:44;;;;;;;;;;;;;;;25.63;54.26;100439.99;1620533;89;20106;-85
2021/06/05 10:32:16;;;;;;;;;;;;;;;25.74;53.94;100435.83;1595130;89;20519;-85
2021/06/05 10:34:45;;;;;;;;;;;;;;;25.83;53.66;100422.95;1620409;89;20416;-86
2021/06/05 10:37:22;;;;;;;;;;;;;;;25.92;53.77;100431.16;1620408;89;20144;-85
2021/06/05 10:39:49;;;;;;;;;;;;;;;26.01;54.04;100429.91;1620482;89;20122;-86
2021/06/05 10:42:28;;;;;;;;;;;;;;;26.12;54.53;100425.20;1620379;89;20436;-86
2021/06/05 10:44:55;;;;;;;;;;;;;;;26.20;54.39;100423.64;1619362;89;20146;-84
2021/06/05 10:47:30;;;;;;;;;;;;;;;26.31;54.07;100424.03;1620339;89;20141;-85
2021/06/05 10:50:09;;;;;;;;;;;;;;;26.38;54.00;100422.95;1612734;89;20115;-87
2021/06/05 10:52:54;;;;;;;;;;;;;;;26.46;52.58;100416.51;1619441;89;20149;-84
2021/06/05 10:55:27;;;;;;;;;;;;;;;26.53;52.95;100411.10;1620382;89;20451;-84
2021/06/05 10:58:14;;;;;;;;;;;;;;;26.55;52.26;100408.99;1620242;86;20187;-85
2021/06/05 11:00:46;;;;;;;;;;;;;;;26.47;52.75;100410.56;1620675;89;20144;-85
2021/06/05 11:03:31;;;;;;;;;;;;;;;26.57;53.15;100412.33;1618934;89;20110;-84
2021/06/05 11:06:03;;;;;;;;;;;;;;;26.51;52.03;100412.66;1620674;89;20106;-85
2021/06/05 11:08:49;;;;;;;;;;;;;;;26.36;51.86;100416.95;1620384;89;20105;-86
2021/06/05 11:11:41;;;;;;;;;;;;;;;26.41;52.00;100425.23;1620443;89;20117;-85
2021/06/05 11:14:10;;;;;;;;;;;;;;;26.56;52.42;100406.09;1620611;89;20110;-83
2021/06/05 11:17:00;;;;;;;;;;;;;;;26.74;51.44;100408.61;1616708;89;20114;-84
2021/06/05 11:19:35;;;;;;;;;;;;;;;26.76;50.94;100412.77;1620533;89;20475;-85
2021/06/05 11:22:12;;;;;;;;;;;;;;;26.79;51.32;100409.63;1620275;89;20133;-85
2021/06/05 11:24:40;;;;;;;;;;;;;;;26.89;51.77;100400.52;1620622;89;20416;-85
2021/06/05 11:27:10;;;;;;;;;;;;;;;27.05;50.82;100398.36;1594980;89;20408;-85
2021/06/05 11:29:40;;;;;;;;;;;;;;;27.13;51.23;100398.94;1616605;89;20230;-83
2021/06/05 11:32:18;;;;;;;;;;;;;;;27.06;49.84;100395.95;1620374;89;20118;-85
2021/06/05 11:34:48;;;;;;;;;;;;;;;26.96;50.07;100406.42;1620821;89;20435;-86
2021/06/05 11:37:17;;;;;;;;;;;;;;;26.85;49.09;100402.50;1620492;89;20118;-85
2021/06/05 11:39:46;;;;;;;;;;;;;;;26.75;49.42;100400.79;1620743;89;20110;-84
2021/06/05 11:42:22;;;;;;;;;;;;;;;26.66;48.90;100401.05;1620397;89;20168;-84
2021/06/05 11:44:50;;;;;;;;;;;;;;;26.51;48.48;100395.59;1620658;89;20145;-84
2021/06/05 11:47:20;;;;;;;;;;;;;;;26.33;48.74;100403.84;1620535;89;20136;-85
2021/06/05 11:49:55;;;;;;;;;;;;;;;26.30;49.87;100406.15;1620618;89;20133;-86
2021/06/05 11:52:34;;;;;;;;;;;;;;;26.32;49.03;100393.22;1605836;89;20134;-85
2021/06/05 11:55:04;;;;;;;;;;;;;;;26.37;50.17;100377.20;1620700;89;20413;-88
2021/06/05 11:57:39;;;;;;;;;;;;;;;26.48;48.80;100377.91;1620402;89;20141;-86
2021/06/05 12:00:08;;;;;;;;;;;;;;;26.58;49.18;100378.80;1620684;89;20134;-87
2021/06/05 12:02:40;;;;;;;;;;;;;;;26.72;49.64;100386.33;1620432;89;20110;-86
2021/06/05 12:05:18;;;;;;;;;;;;;;;26.80;49.05;100373.92;1620392;89;20102;-87
2021/06/05 12:07:44;;;;;;;;;;;;;;;26.73;48.24;100375.83;1620605;89;20515;-86
2021/06/05 12:10:14;;;;;;;;;;;;;;;26.63;48.43;100381.18;1620814;89;20129;-87
2021/06/05 12:12:48;;;;;;;;;;;;;;;26.63;48.75;100373.06;1620523;88;20110;-86
2021/06/05 12:15:24;;;;;;;;;;;;;;;26.71;47.93;100378.73;1620634;89;20117;-87
2021/06/05 12:18:00;;;;;;;;;;;;;;;26.78;48.26;100371.94;1620599;89;20153;-85
2021/06/05 12:20:43;;;;;;;;;;;;;;;26.81;48.08;100357.97;1620560;88;20173;-88
2021/06/05 12:23:18;;;;;;;;;;;;;;;26.84;47.20;100365.13;1620464;89;20165;-85
2021/06/05 12:25:45;;;;;;;;;;;;;;;26.89;47.55;100355.84;1620549;89;20118;-86
2021/06/05 12:28:26;;;;;;;;;;;;;;;27.02;47.55;100356.82;1620440;89;20166;-85
2021/06/05 12:30:54;;;;;;;;;;;;;;;27.08;46.49;100359.98;1620696;89;20109;-84
2021/06/05 12:33:29;;;;;;;;;;;;;;;27.12;46.95;100359.34;1620418;89;20133;-85
2021/06/05 12:35:55;;;;;;;;;;;;;;;27.08;46.31;100361.34;1620488;89;20114;-83
2021/06/05 12:38:36;;;;;;;;;;;;;;;26.94;46.10;100359.24;1620443;89;20106;-83
2021/06/05 12:41:05;;;;;;;;;;;;;;;26.73;46.17;100356.89;1620588;89;20376;-86
2021/06/05 12:43:34;;;;;;;;;;;;;;;26.55;46.99;100355.70;1620463;89;20544;-85
2021/06/05 12:46:09;;;;;;;;;;;;;;;26.56;46.86;100347.09;1620303;89;20126;-84
2021/06/05 12:48:35;;;;;;;;;;;;;;;26.59;46.64;100350.19;1620452;89;20444;-86